Time;durP1;ratioP1;P1;durP2;ratioP2;P2;SDS_P1;SDS_P2;PMS_P1;PMS_P2;Temp;Humidity;BMP_temperature;BMP_pressure;BME280_temperature;BME280_humidity;BME280_pressure;Samples;Min_cycle;Max_cycle;Signal;HPM_P1;HPM_P2
2023/04/18 00:00:03;;;;;;;17.58;10.57;;;6.40;99.90;;;;;;2073383;28;20519;-84
2023/04/18 00:01:24;;;;;;;17.02;10.52;;;6.50;99.90;;;;;;2066374;28;20182;-84
2023/04/18 00:02:45;;;;;;;19.08;11.20;;;6.50;99.90;;;;;;2075650;28;20343;-83
2023/04/18 00:04:08;;;;;;;20.27;12.13;;;6.50;99.90;;;;;;2069235;28;20190;-83
2023/04/18 00:05:29;;;;;;;18.38;11.70;;;6.60;99.90;;;;;;2070704;28;20194;-84
2023/04/18 00:06:50;;;;;;;24.50;13.63;;;6.60;99.90;;;;;;2068243;28;20209;-84
2023/04/18 00:08:11;;;;;;;19.58;11.15;;;6.60;99.90;;;;;;2070608;28;20756;-84
2023/04/18 00:09:32;;;;;;;20.23;12.32;;;6.50;99.90;;;;;;2074723;28;20186;-84
2023/04/18 00:10:53;;;;;;;22.67;11.60;;;6.40;99.90;;;;;;2080909;28;20195;-84
2023/04/18 00:12:14;;;;;;;21.77;12.35;;;6.50;99.90;;;;;;2082118;28;20195;-84
2023/04/18 00:13:37;;;;;;;42.58;13.88;;;6.50;99.90;;;;;;2069732;28;20261;-83
2023/04/18 00:14:59;;;;;;;20.80;10.75;;;6.40;99.90;;;;;;2080188;28;20194;-83
2023/04/18 00:16:21;;;;;;;35.50;14.18;;;6.20;99.90;;;;;;2078794;28;20186;-83
2023/04/18 00:17:42;;;;;;;20.40;11.43;;;6.20;99.90;;;;;;2081323;28;20217;-83
2023/04/18 00:19:05;;;;;;;19.63;10.98;;;6.10;99.90;;;;;;2078820;28;20186;-83
2023/04/18 00:20:26;;;;;;;49.90;15.48;;;6.20;99.90;;;;;;2079166;28;20193;-84
2023/04/18 00:21:48;;;;;;;35.67;14.00;;;6.20;99.90;;;;;;2068615;28;20198;-84
2023/04/18 00:23:12;;;;;;;29.20;12.63;;;6.10;99.90;;;;;;2068102;28;20200;-84
2023/04/18 00:24:33;;;;;;;22.85;11.45;;;6.20;99.90;;;;;;2073338;28;20202;-84
2023/04/18 00:25:54;;;;;;;27.52;11.90;;;6.20;99.90;;;;;;2065786;28;20209;-84
2023/04/18 00:27:17;;;;;;;19.17;10.93;;;6.10;99.90;;;;;;2074458;28;20218;-84
2023/04/18 00:28:38;;;;;;;25.88;12.77;;;6.20;99.90;;;;;;2066508;28;20195;-84
2023/04/18 00:29:59;;;;;;;20.98;10.50;;;6.20;99.90;;;;;;2079499;28;20277;-84
2023/04/18 00:31:21;;;;;;;21.77;11.48;;;6.20;99.90;;;;;;2079011;28;20185;-85
2023/04/18 00:32:42;;;;;;;23.42;11.90;;;6.20;99.90;;;;;;2074555;28;20189;-84
2023/04/18 00:34:03;;;;;;;22.30;11.82;;;6.20;99.90;;;;;;2071326;28;20220;-84
2023/04/18 00:35:24;;;;;;;22.17;12.02;;;6.30;99.90;;;;;;2072882;28;20641;-84
2023/04/18 00:36:45;;;;;;;23.02;12.98;;;6.20;99.90;;;;;;2074772;28;20221;-84
2023/04/18 00:38:06;;;;;;;19.83;11.23;;;6.30;99.90;;;;;;2071864;28;20186;-84
2023/04/18 00:39:27;;;;;;;22.92;12.48;;;6.30;99.90;;;;;;2077228;28;20181;-84
2023/04/18 00:40:48;;;;;;;24.65;13.30;;;6.30;99.90;;;;;;2078006;28;20895;-84
2023/04/18 00:42:09;;;;;;;30.95;14.55;;;6.40;99.90;;;;;;2075196;28;20606;-84
2023/04/18 00:43:33;;;;;;;23.33;12.02;;;6.30;99.90;;;;;;2079543;28;20495;-84
2023/04/18 00:44:54;;;;;;;24.27;11.93;;;6.30;99.90;;;;;;2080759;28;20247;-83
2023/04/18 00:46:15;;;;;;;25.48;12.55;;;6.20;99.90;;;;;;2078193;28;20190;-84
2023/04/18 00:47:36;;;;;;;18.15;11.02;;;6.30;99.90;;;;;;2064882;28;20244;-84
2023/04/18 00:48:57;;;;;;;30.52;14.25;;;6.20;99.90;;;;;;2070359;28;20190;-85
2023/04/18 00:50:19;;;;;;;40.40;14.77;;;6.10;99.90;;;;;;2067890;28;20196;-84
2023/04/18 00:51:40;;;;;;;24.15;12.30;;;6.10;99.90;;;;;;2071929;28;20177;-84
2023/04/18 00:53:02;;;;;;;23.58;12.48;;;6.10;99.90;;;;;;2071420;28;20193;-84
2023/04/18 00:54:24;;;;;;;23.90;13.18;;;6.10;99.90;;;;;;2070019;28;20178;-84
2023/04/18 00:55:45;;;;;;;21.02;11.75;;;6.20;99.90;;;;;;2074465;28;20189;-85
2023/04/18 00:57:07;;;;;;;21.60;12.32;;;6.20;99.90;;;;;;2079469;28;20216;-88
2023/04/18 00:58:28;;;;;;;33.35;14.48;;;6.20;99.90;;;;;;2077034;28;20208;-84
2023/04/18 00:59:50;;;;;;;20.63;10.85;;;6.30;99.90;;;;;;2082722;28;20193;-84
2023/04/18 01:01:13;;;;;;;22.05;10.55;;;6.30;99.90;;;;;;2082012;28;20228;-84
2023/04/18 01:02:34;;;;;;;23.60;12.35;;;6.40;99.90;;;;;;2067639;28;20190;-84
2023/04/18 01:03:55;;;;;;;21.10;11.50;;;6.40;99.90;;;;;;2071241;28;20189;-83
2023/04/18 01:05:17;;;;;;;18.70;11.32;;;6.40;99.90;;;;;;2079894;28;20264;-84
2023/04/18 01:06:39;;;;;;;24.00;12.18;;;6.50;99.90;;;;;;2069220;28;20190;-84
2023/04/18 01:08:01;;;;;;;21.52;11.35;;;6.50;99.90;;;;;;2065751;28;20187;-83
2023/04/18 01:09:24;;;;;;;21.60;11.45;;;6.40;99.90;;;;;;2077936;28;20217;-84
2023/04/18 01:10:46;;;;;;;24.48;12.48;;;6.40;99.90;;;;;;2068432;28;20574;-84
2023/04/18 01:12:07;;;;;;;22.63;12.13;;;6.30;99.90;;;;;;2080014;28;20242;-84
2023/04/18 01:13:28;;;;;;;24.58;12.40;;;6.20;99.90;;;;;;2087009;28;20187;-84
2023/04/18 01:14:49;;;;;;;19.88;11.68;;;6.20;99.90;;;;;;2074543;28;20224;-84
2023/04/18 01:16:10;;;;;;;27.10;13.18;;;6.20;99.90;;;;;;2075244;28;20181;-84
2023/04/18 01:17:33;;;;;;;21.10;11.50;;;6.20;99.90;;;;;;2074423;28;20211;-84
2023/04/18 01:18:55;;;;;;;22.63;12.30;;;6.30;99.90;;;;;;2079632;28;20196;-84
2023/04/18 01:20:16;;;;;;;21.52;11.98;;;6.30;99.90;;;;;;2082053;28;20185;-85
2023/04/18 01:21:42;;;;;;;21.83;11.80;;;6.40;99.90;;;;;;2070374;28;20193;-84
2023/04/18 01:23:03;;;;;;;22.83;11.73;;;6.40;99.90;;;;;;2077966;28;20279;-84
2023/04/18 01:24:25;;;;;;;27.85;13.82;;;6.30;99.90;;;;;;2073101;28;20189;-84
2023/04/18 01:25:50;;;;;;;25.52;12.25;;;6.30;99.90;;;;;;2066542;28;20194;-85
2023/04/18 01:27:12;;;;;;;23.55;11.73;;;6.20;99.90;;;;;;2079382;28;20209;-84
2023/04/18 01:28:36;;;;;;;25.63;12.98;;;6.10;99.90;;;;;;2080684;28;20268;-86
2023/04/18 01:29:57;;;;;;;24.60;12.68;;;6.10;99.90;;;;;;2072756;28;20244;-84
2023/04/18 01:31:18;;;;;;;24.88;12.02;;;6.10;99.90;;;;;;2076411;28;20563;-84
2023/04/18 01:32:39;;;;;;;22.25;12.13;;;6.10;99.90;;;;;;2077738;28;20220;-84
2023/04/18 01:34:00;;;;;;;29.27;13.45;;;6.00;99.90;;;;;;2074606;28;20200;-84
2023/04/18 01:35:21;;;;;;;31.83;13.88;;;6.00;99.90;;;;;;2081989;28;20274;-84
2023/04/18 01:36:42;;;;;;;23.83;12.75;;;6.10;99.90;;;;;;2084294;28;20184;-84
2023/04/18 01:38:03;;;;;;;29.17;13.68;;;6.20;99.90;;;;;;2076876;28;20193;-84
2023/04/18 01:39:24;;;;;;;25.33;11.50;;;6.10;99.90;;;;;;2069484;28;20274;-84
2023/04/18 01:40:46;;;;;;;23.42;12.23;;;6.10;99.90;;;;;;2072236;28;20209;-83
2023/04/18 01:42:07;;;;;;;35.45;14.30;;;6.00;99.90;;;;;;2065681;28;20193;-82
2023/04/18 01:43:28;;;;;;;36.80;14.00;;;6.00;99.90;;;;;;2073339;28;20206;-83
2023/04/18 01:44:49;;;;;;;27.85;11.80;;;6.00;99.90;;;;;;2075697;28;20201;-84
2023/04/18 01:46:10;;;;;;;21.02;11.02;;;5.90;99.90;;;;;;2081000;28;20197;-83
2023/04/18 01:47:31;;;;;;;24.80;11.70;;;6.00;99.90;;;;;;2081079;28;20233;-83
2023/04/18 01:48:53;;;;;;;21.83;10.93;;;6.10;99.90;;;;;;2084647;28;20201;-84
2023/04/18 01:50:14;;;;;;;25.95;12.18;;;6.20;99.90;;;;;;2076648;28;20204;-85
2023/04/18 01:51:37;;;;;;;30.50;13.15;;;6.20;99.90;;;;;;2069734;28;20189;-84
2023/04/18 01:52:58;;;;;;;25.33;13.10;;;6.10;99.90;;;;;;2070948;28;20201;-84
2023/04/18 01:54:20;;;;;;;26.35;12.55;;;6.10;99.90;;;;;;2075434;28;20186;-84
2023/04/18 01:55:41;;;;;;;30.05;12.80;;;6.10;99.90;;;;;;2068154;28;20195;-84
2023/04/18 01:57:02;;;;;;;25.85;12.93;;;6.20;99.90;;;;;;2067412;28;20218;-85
2023/04/18 01:58:24;;;;;;;29.15;12.43;;;6.30;99.90;;;;;;2084461;28;20200;-85
2023/04/18 01:59:45;;;;;;;23.23;11.65;;;6.20;99.90;;;;;;2081385;28;20212;-84
2023/04/18 02:01:06;;;;;;;30.13;13.95;;;6.20;99.90;;;;;;2074912;28;20247;-84
2023/04/18 02:02:27;;;;;;;31.48;13.15;;;6.30;99.90;;;;;;2072284;28;20264;-83
2023/04/18 02:03:48;;;;;;;46.90;15.32;;;6.40;99.90;;;;;;2074671;28;20186;-83
2023/04/18 02:05:09;;;;;;;218.15;23.23;;;6.40;99.90;;;;;;2071247;28;20277;-83
2023/04/18 02:06:30;;;;;;;33.65;13.93;;;6.30;99.90;;;;;;2081184;28;20239;-84
2023/04/18 02:07:52;;;;;;;23.67;12.18;;;6.20;99.90;;;;;;2081131;28;20296;-83
2023/04/18 02:09:13;;;;;;;41.10;13.95;;;6.30;99.90;;;;;;2080328;28;20181;-84
2023/04/18 02:10:34;;;;;;;63.25;15.32;;;6.30;99.90;;;;;;2073177;28;20195;-83
2023/04/18 02:11:58;;;;;;;29.52;13.88;;;6.30;99.90;;;;;;2081569;28;20212;-84
2023/04/18 02:13:19;;;;;;;30.75;13.18;;;6.20;99.90;;;;;;2078136;28;20272;-84
2023/04/18 02:14:40;;;;;;;49.17;12.73;;;6.10;99.90;;;;;;2075255;28;20193;-85
2023/04/18 02:16:01;;;;;;;23.27;12.13;;;5.90;99.90;;;;;;2068604;28;20193;-85
2023/04/18 02:17:22;;;;;;;28.88;13.57;;;6.00;99.90;;;;;;2069688;28;20277;-82
2023/04/18 02:18:43;;;;;;;84.53;21.02;;;6.10;99.90;;;;;;2079009;28;20338;-83
2023/04/18 02:20:07;;;;;;;28.83;13.25;;;6.10;99.90;;;;;;2082057;28;20189;-83
2023/04/18 02:21:29;;;;;;;49.50;15.38;;;6.10;99.90;;;;;;2075669;28;20185;-83
2023/04/18 02:22:50;;;;;;;84.28;17.70;;;6.20;99.90;;;;;;2080628;28;20578;-84
2023/04/18 02:24:11;;;;;;;56.33;16.30;;;6.20;99.90;;;;;;2082843;28;20225;-83
2023/04/18 02:25:32;;;;;;;45.70;14.90;;;6.10;99.90;;;;;;2076278;28;20245;-83
2023/04/18 02:26:53;;;;;;;59.55;14.73;;;6.00;99.90;;;;;;2074892;28;20265;-84
2023/04/18 02:28:14;;;;;;;39.28;13.50;;;6.00;99.90;;;;;;2073497;28;20197;-83
2023/04/18 02:29:35;;;;;;;35.03;13.93;;;6.00;99.90;;;;;;2073120;28;20193;-84
2023/04/18 02:30:58;;;;;;;53.45;16.33;;;6.10;99.90;;;;;;2073281;28;20196;-83
2023/04/18 02:32:19;;;;;;;45.00;14.65;;;6.20;99.90;;;;;;2077205;28;20245;-83
2023/04/18 02:33:46;;;;;;;49.45;15.45;;;6.20;99.90;;;;;;2083026;28;20197;-83
2023/04/18 02:35:07;;;;;;;32.17;13.05;;;6.20;99.90;;;;;;2081545;28;20189;-84
2023/04/18 02:36:29;;;;;;;31.83;13.05;;;6.20;99.90;;;;;;2077780;28;20194;-84
2023/04/18 02:37:50;;;;;;;40.55;16.60;;;6.20;99.90;;;;;;2072111;28;20197;-82
2023/04/18 02:39:12;;;;;;;54.92;15.65;;;6.20;99.90;;;;;;2078088;28;20608;-82
2023/04/18 02:40:33;;;;;;;58.80;16.55;;;6.10;99.90;;;;;;2073177;28;20189;-82
2023/04/18 02:41:54;;;;;;;38.10;13.98;;;6.00;99.90;;;;;;2070995;28;20277;-82
2023/04/18 02:43:15;;;;;;;93.13;18.15;;;6.20;99.90;;;;;;2067166;28;20710;-84
2023/04/18 02:44:36;;;;;;;49.28;15.32;;;6.10;99.90;;;;;;2068835;28;20274;-84
2023/04/18 02:45:57;;;;;;;52.83;16.10;;;6.10;99.90;;;;;;2081553;28;20198;-84
2023/04/18 02:47:18;;;;;;;46.60;16.83;;;6.10;99.90;;;;;;2072551;28;20217;-83
2023/04/18 02:48:39;;;;;;;75.90;17.88;;;6.20;99.90;;;;;;2076010;28;20216;-82
2023/04/18 02:50:02;;;;;;;30.02;13.43;;;6.10;99.90;;;;;;2073233;28;20193;-82
2023/04/18 02:51:23;;;;;;;31.10;13.10;;;6.10;99.90;;;;;;2074986;28;20214;-82
2023/04/18 02:52:44;;;;;;;43.65;16.27;;;6.10;99.90;;;;;;2070140;28;20222;-83
2023/04/18 02:54:05;;;;;;;32.65;13.85;;;6.10;99.90;;;;;;2079383;28;20189;-83
2023/04/18 02:55:26;;;;;;;29.45;13.10;;;6.10;99.90;;;;;;2072108;28;20197;-84
2023/04/18 02:56:47;;;;;;;27.42;13.50;;;6.20;99.90;;;;;;2075988;28;20181;-84
2023/04/18 02:58:08;;;;;;;58.88;17.63;;;6.20;99.90;;;;;;2082382;28;20195;-84
2023/04/18 02:59:29;;;;;;;40.20;16.13;;;6.20;99.90;;;;;;2066642;28;20186;-82
2023/04/18 03:00:54;;;;;;;38.33;16.33;;;6.10;99.90;;;;;;2068920;28;20272;-83
2023/04/18 03:02:16;;;;;;;28.40;13.25;;;6.20;99.90;;;;;;2066864;28;20186;-83
2023/04/18 03:03:37;;;;;;;41.63;15.88;;;6.20;99.90;;;;;;2080039;28;20188;-83
2023/04/18 03:04:58;;;;;;;32.53;14.98;;;6.20;99.90;;;;;;2078357;28;20196;-83
2023/04/18 03:06:19;;;;;;;40.42;16.60;;;6.30;99.90;;;;;;2076008;28;20214;-83
2023/04/18 03:07:40;;;;;;;72.57;21.92;;;6.30;99.90;;;;;;2068990;28;20725;-83
2023/04/18 03:09:02;;;;;;;49.72;17.67;;;6.30;99.90;;;;;;2076622;28;20189;-84
2023/04/18 03:10:23;;;;;;;34.55;14.98;;;6.20;99.90;;;;;;2070125;28;20190;-84
2023/04/18 03:11:45;;;;;;;69.43;21.55;;;6.00;99.90;;;;;;2081362;28;20220;-84
2023/04/18 03:13:06;;;;;;;32.50;14.07;;;5.80;99.90;;;;;;2078110;28;20189;-84
2023/04/18 03:14:27;;;;;;;32.70;14.80;;;5.70;99.90;;;;;;2070987;28;20654;-84
2023/04/18 03:15:48;;;;;;;32.13;14.32;;;5.80;99.90;;;;;;2072345;28;20193;-84
2023/04/18 03:17:09;;;;;;;38.55;15.35;;;5.90;99.90;;;;;;2076252;28;20189;-84
2023/04/18 03:18:30;;;;;;;30.85;14.73;;;5.90;99.90;;;;;;2071844;28;20208;-84
2023/04/18 03:19:51;;;;;;;32.60;14.30;;;6.00;99.90;;;;;;2080617;28;20189;-84
2023/04/18 03:21:13;;;;;;;33.63;14.90;;;6.00;99.90;;;;;;2074620;28;20197;-83
2023/04/18 03:22:34;;;;;;;31.45;14.85;;;6.10;99.90;;;;;;2075955;28;20205;-84
2023/04/18 03:23:55;;;;;;;33.63;14.88;;;6.20;99.90;;;;;;2064246;28;20197;-85
2023/04/18 03:25:16;;;;;;;31.75;15.10;;;6.30;99.90;;;;;;2067202;28;20205;-84
2023/04/18 03:26:37;;;;;;;33.65;13.57;;;6.20;99.90;;;;;;2073714;28;20221;-85
2023/04/18 03:27:59;;;;;;;31.17;14.88;;;6.10;99.90;;;;;;2072353;28;20383;-85
2023/04/18 03:29:20;;;;;;;31.77;14.98;;;6.00;99.90;;;;;;2076027;28;20221;-85
2023/04/18 03:30:41;;;;;;;31.98;14.73;;;6.20;99.90;;;;;;2074675;28;20715;-84
2023/04/18 03:32:03;;;;;;;29.70;14.07;;;6.20;99.90;;;;;;2067426;28;20197;-83
2023/04/18 03:33:24;;;;;;;32.90;13.88;;;6.20;99.90;;;;;;2071239;28;20273;-85
2023/04/18 03:34:45;;;;;;;31.67;14.93;;;6.20;99.90;;;;;;2072574;28;20666;-84
2023/04/18 03:36:06;;;;;;;28.98;13.60;;;6.20;99.90;;;;;;2071352;28;20236;-84
2023/04/18 03:37:27;;;;;;;26.55;12.60;;;6.20;99.90;;;;;;2073167;28;20218;-85
2023/04/18 03:38:48;;;;;;;46.22;16.67;;;6.10;99.90;;;;;;2069622;28;20191;-84
2023/04/18 03:40:10;;;;;;;33.55;13.95;;;6.20;99.90;;;;;;2064702;28;20194;-85
2023/04/18 03:41:31;;;;;;;43.72;17.83;;;6.10;99.90;;;;;;2076560;28;20181;-84
2023/04/18 03:42:52;;;;;;;39.80;16.30;;;6.10;99.90;;;;;;2080111;28;20236;-85
2023/04/18 03:44:13;;;;;;;60.53;16.35;;;6.00;99.90;;;;;;2082811;28;20185;-84
2023/04/18 03:45:34;;;;;;;43.42;15.30;;;5.90;99.90;;;;;;2078505;28;20193;-85
2023/04/18 03:46:56;;;;;;;46.63;18.85;;;5.90;99.90;;;;;;2074608;28;20592;-84
2023/04/18 03:48:17;;;;;;;40.65;15.48;;;5.90;99.90;;;;;;2076647;28;20235;-85
2023/04/18 03:49:39;;;;;;;52.25;17.27;;;6.00;99.90;;;;;;2082584;28;20203;-84
2023/04/18 03:51:00;;;;;;;35.40;15.75;;;5.90;99.90;;;;;;2075806;28;20190;-84
2023/04/18 03:52:21;;;;;;;35.58;15.02;;;5.90;99.90;;;;;;2073752;28;20195;-84
2023/04/18 03:53:42;;;;;;;48.72;17.58;;;6.00;99.90;;;;;;2076830;28;20185;-83
2023/04/18 03:55:03;;;;;;;38.10;15.07;;;6.00;99.90;;;;;;2067547;28;20592;-84
2023/04/18 03:56:25;;;;;;;53.63;17.48;;;6.10;99.90;;;;;;2079133;28;20375;-83
2023/04/18 03:57:47;;;;;;;35.15;15.07;;;6.10;99.90;;;;;;2073229;28;20273;-83
2023/04/18 03:59:09;;;;;;;48.55;17.08;;;6.00;99.90;;;;;;2074289;28;20186;-83
2023/04/18 04:00:30;;;;;;;33.22;15.38;;;6.00;99.90;;;;;;2068550;28;20198;-83
2023/04/18 04:01:51;;;;;;;41.38;16.88;;;6.00;99.90;;;;;;2083574;28;20181;-85
2023/04/18 04:03:12;;;;;;;40.65;16.75;;;6.10;99.90;;;;;;2076989;28;20651;-83
2023/04/18 04:04:33;;;;;;;38.28;15.48;;;6.10;99.90;;;;;;2078898;28;20215;-83
2023/04/18 04:05:55;;;;;;;39.60;14.43;;;6.00;99.90;;;;;;2074266;28;20194;-84
2023/04/18 04:07:16;;;;;;;63.05;18.13;;;6.00;99.90;;;;;;2073277;28;20225;-84
2023/04/18 04:08:37;;;;;;;39.55;15.43;;;6.00;99.90;;;;;;2067953;28;20324;-84
2023/04/18 04:09:58;;;;;;;154.63;23.85;;;6.20;99.90;;;;;;2068914;28;20209;-84
2023/04/18 04:11:20;;;;;;;107.28;21.00;;;6.20;99.90;;;;;;2073640;28;20187;-84
2023/04/18 04:12:41;;;;;;;114.40;18.67;;;6.20;99.90;;;;;;2064035;28;20194;-84
2023/04/18 04:14:02;;;;;;;67.65;16.10;;;6.20;99.90;;;;;;2066954;28;20189;-83
2023/04/18 04:15:23;;;;;;;69.53;17.40;;;6.20;99.90;;;;;;2083610;28;20184;-83
2023/04/18 04:16:44;;;;;;;101.78;21.65;;;6.30;99.90;;;;;;2069312;28;20178;-83
2023/04/18 04:18:06;;;;;;;82.97;18.08;;;6.30;99.90;;;;;;2068182;28;20197;-84
2023/04/18 04:19:27;;;;;;;192.30;21.40;;;6.30;99.90;;;;;;2080354;28;20242;-84
2023/04/18 04:20:48;;;;;;;79.18;18.52;;;6.40;99.90;;;;;;2077797;28;20242;-84
2023/04/18 04:22:09;;;;;;;198.05;27.83;;;6.50;99.90;;;;;;2067661;28;20204;-83
2023/04/18 04:23:31;;;;;;;150.35;22.88;;;6.30;99.90;;;;;;2073004;28;20182;-83
2023/04/18 04:24:52;;;;;;;52.58;15.98;;;6.20;99.90;;;;;;2068771;28;20182;-82
2023/04/18 04:26:13;;;;;;;85.30;19.13;;;6.20;99.90;;;;;;2069396;28;20181;-84
2023/04/18 04:27:35;;;;;;;182.48;28.58;;;6.20;99.90;;;;;;2065649;28;20248;-83
2023/04/18 04:28:56;;;;;;;71.88;17.98;;;6.20;99.90;;;;;;2075236;28;20986;-83
2023/04/18 04:30:18;;;;;;;207.85;28.17;;;6.10;99.90;;;;;;2079447;28;20189;-83
2023/04/18 04:31:39;;;;;;;102.05;21.90;;;6.20;99.90;;;;;;2081315;28;20204;-84
2023/04/18 04:33:00;;;;;;;72.78;19.23;;;6.10;99.90;;;;;;2083373;28;20207;-84
2023/04/18 04:34:21;;;;;;;78.70;23.45;;;6.10;99.90;;;;;;2072537;28;20258;-83
2023/04/18 04:35:42;;;;;;;79.90;17.10;;;6.20;99.90;;;;;;2068629;28;20293;-83
2023/04/18 04:37:03;;;;;;;109.00;19.80;;;6.10;99.90;;;;;;2077446;28;20185;-84
2023/04/18 04:38:24;;;;;;;98.20;20.73;;;6.20;99.90;;;;;;2078757;28;20193;-83
2023/04/18 04:39:46;;;;;;;104.10;19.45;;;6.10;99.90;;;;;;2067607;28;20190;-83
2023/04/18 04:41:08;;;;;;;48.35;14.73;;;6.10;99.90;;;;;;2074726;28;20219;-84
2023/04/18 04:42:29;;;;;;;114.85;22.80;;;6.10;99.90;;;;;;2070650;28;20190;-83
2023/04/18 04:43:51;;;;;;;47.67;14.23;;;6.10;99.90;;;;;;2065090;28;20186;-84
2023/04/18 04:45:12;;;;;;;63.40;15.40;;;6.20;99.90;;;;;;2076285;28;20624;-84
2023/04/18 04:46:33;;;;;;;95.88;18.45;;;6.10;99.90;;;;;;2078411;28;20412;-84
2023/04/18 04:47:54;;;;;;;294.38;31.27;;;6.00;99.90;;;;;;2071078;28;20214;-84
2023/04/18 04:49:15;;;;;;;57.45;16.15;;;6.10;99.90;;;;;;2070686;28;20194;-83
2023/04/18 04:50:39;;;;;;;176.05;26.40;;;6.20;99.90;;;;;;2073577;28;20292;-84
2023/04/18 04:52:01;;;;;;;147.85;22.00;;;6.20;99.90;;;;;;2074748;28;20260;-84
2023/04/18 04:53:25;;;;;;;75.50;16.35;;;6.20;99.90;;;;;;2077426;28;20732;-84
2023/04/18 04:54:46;;;;;;;135.80;21.80;;;6.10;99.90;;;;;;2080132;28;20189;-84
2023/04/18 04:56:08;;;;;;;102.57;18.20;;;6.10;99.90;;;;;;2080440;28;20197;-85
2023/04/18 04:57:29;;;;;;;90.70;18.95;;;6.20;99.90;;;;;;2078398;28;20275;-84
2023/04/18 04:58:51;;;;;;;94.10;18.00;;;6.30;99.90;;;;;;2076897;28;20248;-85
2023/04/18 05:00:19;;;;;;;94.32;18.60;;;6.30;99.90;;;;;;2068633;28;20200;-85
2023/04/18 05:01:40;;;;;;;205.48;21.92;;;6.20;99.90;;;;;;2082962;28;20574;-84
2023/04/18 05:03:01;;;;;;;114.65;20.02;;;6.20;99.90;;;;;;2072000;28;20197;-84
2023/04/18 05:04:24;;;;;;;171.00;21.67;;;6.30;99.90;;;;;;2077733;28;20193;-85
2023/04/18 05:05:45;;;;;;;292.80;30.27;;;6.30;99.90;;;;;;2070887;28;20185;-84
2023/04/18 05:07:06;;;;;;;137.68;25.50;;;6.30;99.90;;;;;;2068152;28;20276;-83
2023/04/18 05:08:27;;;;;;;135.10;23.35;;;6.10;99.90;;;;;;2076707;28;20216;-84
2023/04/18 05:09:48;;;;;;;172.20;23.23;;;6.20;99.90;;;;;;2073024;28;20728;-84
2023/04/18 05:11:09;;;;;;;158.57;23.38;;;6.10;99.90;;;;;;2066216;28;20194;-84
2023/04/18 05:12:30;;;;;;;266.90;31.02;;;6.10;99.90;;;;;;2075824;28;20688;-84
2023/04/18 05:13:51;;;;;;;138.40;21.13;;;6.10;99.90;;;;;;2068827;28;20220;-84
2023/04/18 05:15:15;;;;;;;250.90;26.63;;;6.10;99.90;;;;;;2065545;28;20190;-84
2023/04/18 05:16:36;;;;;;;107.78;20.50;;;6.10;99.90;;;;;;2079683;28;20188;-84
2023/04/18 05:17:57;;;;;;;262.52;29.65;;;6.10;99.90;;;;;;2081981;28;20259;-84
2023/04/18 05:19:18;;;;;;;198.77;24.55;;;6.10;99.90;;;;;;2076793;28;20185;-83
2023/04/18 05:20:40;;;;;;;85.65;21.38;;;6.00;99.90;;;;;;2069032;28;20194;-84
2023/04/18 05:22:01;;;;;;;249.95;25.80;;;6.10;99.90;;;;;;2067761;28;20285;-84
2023/04/18 05:23:22;;;;;;;177.80;24.92;;;6.20;99.90;;;;;;2067509;28;20677;-84
2023/04/18 05:24:43;;;;;;;68.22;17.75;;;6.20;99.90;;;;;;2072782;28;20197;-84
2023/04/18 05:26:04;;;;;;;72.30;17.73;;;6.30;99.90;;;;;;2073551;28;20189;-83
2023/04/18 05:27:25;;;;;;;141.52;23.38;;;6.30;99.90;;;;;;2071941;28;20217;-84
2023/04/18 05:28:47;;;;;;;96.13;18.70;;;6.30;99.90;;;;;;2075892;28;20241;-83
2023/04/18 05:30:08;;;;;;;247.82;28.60;;;6.30;99.90;;;;;;2070939;28;20209;-83
2023/04/18 05:31:30;;;;;;;58.28;14.63;;;6.40;99.90;;;;;;2067556;28;20253;-84
2023/04/18 05:32:51;;;;;;;159.55;21.73;;;6.30;99.90;;;;;;2076312;28;20287;-84
2023/04/18 05:34:12;;;;;;;247.43;26.42;;;6.20;99.90;;;;;;2066557;28;20597;-83
2023/04/18 05:35:33;;;;;;;147.13;20.67;;;6.20;99.90;;;;;;2076225;28;20276;-83
2023/04/18 05:36:54;;;;;;;295.95;29.20;;;6.10;99.90;;;;;;2077793;28;20630;-84
2023/04/18 05:38:15;;;;;;;160.38;19.33;;;6.00;99.90;;;;;;2073537;28;20197;-84
2023/04/18 05:39:36;;;;;;;79.85;17.38;;;6.00;99.90;;;;;;2079636;28;20192;-84
2023/04/18 05:40:59;;;;;;;315.45;30.67;;;6.00;99.90;;;;;;2070314;28;20197;-84
2023/04/18 05:42:20;;;;;;;144.00;18.67;;;6.10;99.90;;;;;;2079089;28;20295;-83
2023/04/18 05:43:41;;;;;;;123.70;17.67;;;6.00;99.90;;;;;;2078832;28;20248;-84
2023/04/18 05:45:02;;;;;;;285.17;27.63;;;6.00;99.90;;;;;;2071330;28;20225;-84
2023/04/18 05:46:23;;;;;;;325.75;34.45;;;5.90;99.90;;;;;;2071261;28;20186;-84
2023/04/18 05:47:44;;;;;;;208.65;24.30;;;6.00;99.90;;;;;;2072169;28;20219;-84
2023/04/18 05:49:05;;;;;;;185.35;24.55;;;6.00;99.90;;;;;;2065870;28;20249;-84
2023/04/18 05:50:26;;;;;;;163.55;19.92;;;6.10;99.90;;;;;;2071080;28;20220;-84
2023/04/18 05:51:48;;;;;;;218.40;23.05;;;6.10;99.90;;;;;;2068533;28;20576;-82
2023/04/18 05:53:09;;;;;;;238.98;23.60;;;6.10;99.90;;;;;;2064708;28;20186;-84
2023/04/18 05:54:30;;;;;;;325.95;32.90;;;6.00;99.90;;;;;;2074946;28;20185;-84
2023/04/18 05:55:51;;;;;;;169.73;22.67;;;5.80;99.90;;;;;;2071951;28;20265;-84
2023/04/18 05:57:12;;;;;;;129.80;18.77;;;5.80;99.90;;;;;;2072163;28;20198;-84
2023/04/18 05:58:33;;;;;;;166.77;26.67;;;5.90;99.90;;;;;;2074512;28;20221;-84
2023/04/18 05:59:54;;;;;;;106.47;16.13;;;6.00;99.90;;;;;;2076533;28;20214;-84
2023/04/18 06:01:20;;;;;;;59.28;14.02;;;5.90;99.90;;;;;;2076624;28;20705;-83
2023/04/18 06:02:41;;;;;;;64.28;13.13;;;6.10;99.90;;;;;;2076175;28;20228;-84
2023/04/18 06:04:02;;;;;;;281.77;24.90;;;6.10;99.90;;;;;;2075536;28;20610;-84
2023/04/18 06:05:23;;;;;;;213.70;24.60;;;6.00;99.90;;;;;;2078260;28;20215;-84
2023/04/18 06:06:44;;;;;;;81.30;14.90;;;6.00;99.90;;;;;;2077059;28;20220;-84
2023/04/18 06:08:06;;;;;;;86.60;16.05;;;5.90;99.90;;;;;;2072354;28;20201;-84
2023/04/18 06:09:27;;;;;;;39.92;12.18;;;6.10;99.90;;;;;;2075273;28;20333;-83
2023/04/18 06:10:48;;;;;;;144.45;23.27;;;6.00;99.90;;;;;;2075510;28;20188;-84
2023/04/18 06:12:09;;;;;;;76.50;16.80;;;6.10;99.90;;;;;;2068161;28;20225;-84
2023/04/18 06:13:31;;;;;;;45.85;12.55;;;6.20;99.90;;;;;;2075298;28;20248;-84
2023/04/18 06:14:51;;;;;;;237.48;22.88;;;6.20;99.90;;;;;;2067431;28;20216;-84
2023/04/18 06:16:13;;;;;;;145.95;17.77;;;6.00;99.90;;;;;;2066844;28;20216;-84
2023/04/18 06:17:34;;;;;;;176.35;19.70;;;6.00;99.90;;;;;;2063368;28;20309;-84
2023/04/18 06:18:56;;;;;;;63.95;13.07;;;5.90;99.90;;;;;;2067009;28;20587;-84
2023/04/18 06:20:17;;;;;;;159.90;23.95;;;6.00;99.90;;;;;;2070292;28;20256;-84
2023/04/18 06:21:40;;;;;;;82.38;16.05;;;6.00;99.90;;;;;;2072511;28;20201;-85
2023/04/18 06:23:01;;;;;;;173.93;18.15;;;6.10;99.90;;;;;;2070485;28;20639;-85
2023/04/18 06:24:22;;;;;;;54.33;12.43;;;6.10;99.90;;;;;;2074899;28;20228;-84
2023/04/18 06:25:43;;;;;;;84.95;14.20;;;6.20;99.90;;;;;;2067964;28;20664;-85
2023/04/18 06:27:05;;;;;;;65.07;15.32;;;6.30;99.90;;;;;;2071612;28;20677;-86
2023/04/18 06:28:26;;;;;;;114.38;17.15;;;6.40;99.90;;;;;;2078825;28;20189;-85
2023/04/18 06:29:47;;;;;;;75.63;17.27;;;6.30;99.90;;;;;;2088473;28;20200;-85
2023/04/18 06:31:09;;;;;;;59.42;13.68;;;6.30;99.90;;;;;;2078785;28;20200;-84
2023/04/18 06:32:30;;;;;;;68.55;12.35;;;6.40;99.90;;;;;;2070307;28;20196;-83
2023/04/18 06:33:51;;;;;;;94.18;19.95;;;6.50;99.90;;;;;;2076384;28;20622;-85
2023/04/18 06:35:12;;;;;;;69.20;13.00;;;6.40;99.90;;;;;;2076166;28;20284;-84
2023/04/18 06:36:33;;;;;;;83.20;13.07;;;6.40;99.90;;;;;;2071435;28;20194;-84
2023/04/18 06:37:55;;;;;;;100.95;16.35;;;6.50;99.90;;;;;;2074286;28;20213;-84
2023/04/18 06:39:16;;;;;;;67.07;14.20;;;6.50;99.90;;;;;;2071238;28;20261;-83
2023/04/18 06:40:37;;;;;;;126.60;16.85;;;6.50;99.90;;;;;;2066895;28;20193;-84
2023/04/18 06:41:58;;;;;;;47.25;12.27;;;6.50;99.90;;;;;;2071416;28;20277;-85
2023/04/18 06:43:20;;;;;;;38.50;13.57;;;6.40;99.90;;;;;;2077839;28;20192;-85
2023/04/18 06:44:42;;;;;;;79.43;16.77;;;6.50;99.90;;;;;;2072896;28;20198;-85
2023/04/18 06:46:06;;;;;;;76.15;16.30;;;6.50;99.90;;;;;;2070466;28;20202;-85
2023/04/18 06:47:27;;;;;;;45.90;11.10;;;6.50;99.90;;;;;;2075654;28;20248;-85
2023/04/18 06:48:49;;;;;;;82.43;16.38;;;6.40;99.90;;;;;;2073108;28;20237;-85
2023/04/18 06:50:10;;;;;;;90.38;12.85;;;6.40;99.90;;;;;;2067636;28;20240;-84
2023/04/18 06:51:32;;;;;;;46.58;13.38;;;6.50;99.90;;;;;;2072443;28;20225;-85
2023/04/18 06:52:54;;;;;;;121.18;19.27;;;6.50;99.90;;;;;;2074281;28;20631;-86
2023/04/18 06:54:15;;;;;;;76.47;15.25;;;6.40;99.90;;;;;;2082816;28;20378;-86
2023/04/18 06:55:36;;;;;;;64.63;15.10;;;6.30;99.90;;;;;;2074164;28;20198;-85
2023/04/18 06:56:58;;;;;;;202.15;21.70;;;6.30;99.90;;;;;;2076911;28;20342;-86